createdAt,value
2023-04-27T00:00:39.451Z,3.53
2023-04-27T00:03:42.284Z,3.28
2023-04-27T00:06:44.614Z,3.33
2023-04-27T00:09:47.190Z,3.30
2023-04-27T00:12:49.340Z,3.13
2023-04-27T00:15:51.542Z,3.63
2023-04-27T00:18:54.107Z,3.50
2023-04-27T00:21:57.990Z,3.13
2023-04-27T00:25:00.146Z,3.78
2023-04-27T00:28:02.369Z,2.95
2023-04-27T00:31:04.679Z,3.20
2023-04-27T00:34:06.904Z,3.22
2023-04-27T00:37:09.126Z,3.10
2023-04-27T00:40:11.953Z,3.40
2023-04-27T00:43:14.713Z,3.05
2023-04-27T00:46:17.389Z,3.10
2023-04-27T00:49:23.757Z,3.50
2023-04-27T00:52:26.014Z,3.38
2023-04-27T00:55:28.282Z,2.88
2023-04-27T00:58:30.602Z,2.95
2023-04-27T01:01:34.193Z,2.97
2023-04-27T01:04:37.075Z,3.30
2023-04-27T01:07:40.223Z,2.60
2023-04-27T01:10:42.395Z,2.85
2023-04-27T01:13:46.272Z,2.72
2023-04-27T01:16:48.640Z,2.90
2023-04-27T01:19:51.529Z,2.72
2023-04-27T01:22:53.740Z,3.10
2023-04-27T01:25:55.933Z,2.92
2023-04-27T01:28:58.107Z,2.20
2023-04-27T01:32:02.477Z,2.58
2023-04-27T01:35:05.754Z,2.72
2023-04-27T01:38:08.231Z,2.50
2023-04-27T01:41:10.952Z,2.33
2023-04-27T01:44:13.184Z,2.45
2023-04-27T01:47:17.231Z,2.50
2023-04-27T01:50:19.862Z,2.55
2023-04-27T01:53:22.053Z,3.25
2023-04-27T01:56:24.563Z,2.88
2023-04-27T01:59:26.830Z,2.80
2023-04-27T02:02:29.264Z,3.20
2023-04-27T02:05:31.834Z,2.67
2023-04-27T02:08:34.954Z,3.17
2023-04-27T02:11:37.174Z,3.20
2023-04-27T02:14:39.478Z,2.92
2023-04-27T02:17:41.687Z,3.00
2023-04-27T02:20:44.354Z,2.63
2023-04-27T02:23:46.710Z,2.60
2023-04-27T02:26:48.966Z,2.90
2023-04-27T02:29:51.486Z,3.20
2023-04-27T02:32:54.606Z,2.80
2023-04-27T02:35:56.897Z,3.15
2023-04-27T02:38:59.065Z,2.70
2023-04-27T02:42:02.883Z,2.83
2023-04-27T02:45:07.112Z,2.60
2023-04-27T02:48:09.511Z,2.80
2023-04-27T02:51:12.415Z,2.60
2023-04-27T02:54:14.608Z,2.97
2023-04-27T02:57:16.847Z,2.92
2023-04-27T03:00:19.837Z,2.30
2023-04-27T03:03:22.956Z,2.85
2023-04-27T03:06:25.655Z,2.47
2023-04-27T03:09:27.905Z,3.40
2023-04-27T03:12:30.194Z,2.67
2023-04-27T03:15:35.425Z,2.45
2023-04-27T03:18:38.337Z,2.70
2023-04-27T03:21:40.530Z,3.03
2023-04-27T03:24:43.038Z,2.42
2023-04-27T03:27:45.306Z,2.65
2023-04-27T03:30:47.524Z,2.75
2023-04-27T03:33:49.723Z,2.80
2023-04-27T03:36:51.976Z,3.10
2023-04-27T03:39:54.200Z,2.53
2023-04-27T03:42:59.027Z,2.40
2023-04-27T03:46:01.685Z,2.35
2023-04-27T03:49:03.959Z,2.67
2023-04-27T03:52:06.574Z,2.40
2023-04-27T03:55:10.792Z,2.75
2023-04-27T03:58:14.438Z,2.70
2023-04-27T04:01:36.360Z,2.42
2023-04-27T04:04:38.891Z,2.40
2023-04-27T04:07:41.676Z,2.60
2023-04-27T04:10:43.946Z,2.63
2023-04-27T04:13:47.360Z,2.38
2023-04-27T04:16:49.695Z,2.50
2023-04-27T04:19:51.963Z,2.83
2023-04-27T04:22:55.575Z,2.40
2023-04-27T04:25:57.850Z,2.40
2023-04-27T04:29:03.789Z,2.85
2023-04-27T04:32:07.560Z,2.83
2023-04-27T04:35:09.905Z,2.90
2023-04-27T04:38:12.160Z,3.20
2023-04-27T04:41:14.845Z,2.60
2023-04-27T04:44:17.066Z,2.75
2023-04-27T04:47:20.196Z,2.83
2023-04-27T04:50:23.471Z,2.27
2023-04-27T04:53:26.977Z,2.55
2023-04-27T04:56:31.006Z,2.80
2023-04-27T04:59:36.048Z,2.30
2023-04-27T05:02:38.456Z,2.50
2023-04-27T05:05:40.986Z,2.47
2023-04-27T05:08:43.267Z,2.50
2023-04-27T05:11:45.590Z,2.27
2023-04-27T05:14:48.475Z,2.13
2023-04-27T05:17:50.779Z,1.90
2023-04-27T05:20:52.987Z,2.27
2023-04-27T05:23:55.273Z,2.05
2023-04-27T05:26:57.470Z,2.47
2023-04-27T05:29:59.699Z,2.33
2023-04-27T05:33:02.970Z,1.95
2023-04-27T05:36:05.532Z,2.42
2023-04-27T05:39:08.092Z,2.10
2023-04-27T05:42:10.582Z,2.73
2023-04-27T05:45:12.962Z,2.65
2023-04-27T05:48:15.177Z,2.25
2023-04-27T05:51:17.620Z,2.23
2023-04-27T05:54:19.796Z,2.22
2023-04-27T05:57:22.049Z,2.25
2023-04-27T06:00:25.931Z,2.10
2023-04-27T06:03:28.494Z,2.20
2023-04-27T06:06:35.473Z,1.92
2023-04-27T06:09:42.474Z,2.75
2023-04-27T06:12:55.114Z,1.87
2023-04-27T06:15:57.481Z,1.80
2023-04-27T06:19:00.558Z,1.63
2023-04-27T06:22:04.903Z,1.90
2023-04-27T06:25:10.323Z,1.90
2023-04-27T06:28:13.033Z,2.28
2023-04-27T06:31:17.173Z,2.40
2023-04-27T06:34:21.398Z,2.00
2023-04-27T06:37:23.682Z,1.60
2023-04-27T06:40:27.741Z,2.00
2023-04-27T06:43:34.461Z,1.50
2023-04-27T06:46:42.032Z,1.50
2023-04-27T06:49:45.169Z,1.48
2023-04-27T06:52:47.448Z,1.67
2023-04-27T06:55:51.119Z,1.73
2023-04-27T06:58:53.333Z,1.30
2023-04-27T07:01:58.390Z,1.48
2023-04-27T07:05:01.172Z,1.60
2023-04-27T07:08:08.626Z,1.52
2023-04-27T07:11:18.742Z,1.40
2023-04-27T07:14:32.406Z,1.13
2023-04-27T07:17:41.081Z,1.20
2023-04-27T07:20:43.500Z,1.55
2023-04-27T07:23:46.661Z,1.10
2023-04-27T07:26:48.903Z,1.33
2023-04-27T07:29:52.753Z,1.60
2023-04-27T07:32:55.056Z,1.40
2023-04-27T07:35:58.377Z,1.40
2023-04-27T07:39:01.381Z,1.25
2023-04-27T07:42:03.862Z,1.35
2023-04-27T07:45:06.734Z,1.47
2023-04-27T07:48:10.517Z,1.40
2023-04-27T07:51:20.500Z,1.35
2023-04-27T07:54:23.036Z,1.40
2023-04-27T07:57:25.531Z,1.17
2023-04-27T08:00:28.225Z,1.67
2023-04-27T08:03:34.703Z,1.13
2023-04-27T08:06:43.102Z,1.13
2023-04-27T08:09:48.184Z,1.08
2023-04-27T08:12:55.271Z,1.17
2023-04-27T08:16:03.814Z,1.00
2023-04-27T08:19:06.357Z,1.02
2023-04-27T08:22:10.350Z,1.20
2023-04-27T08:25:15.014Z,1.00
2023-04-27T08:28:17.653Z,1.40
2023-04-27T08:31:21.057Z,1.13
2023-04-27T08:34:24.636Z,1.38
2023-04-27T08:37:36.766Z,0.95
2023-04-27T08:40:52.037Z,1.20
2023-04-27T08:43:54.439Z,0.85
2023-04-27T08:46:57.434Z,1.00
2023-04-27T08:50:00.029Z,1.38
2023-04-27T08:53:02.328Z,1.23
2023-04-27T08:56:06.160Z,0.97
2023-04-27T08:59:20.305Z,1.13
2023-04-27T09:02:25.815Z,1.35
2023-04-27T09:05:33.108Z,1.20
2023-04-27T09:08:50.970Z,1.70
2023-04-27T09:11:56.775Z,1.23
2023-04-27T09:15:05.221Z,1.25
2023-04-27T09:18:07.645Z,0.97
2023-04-27T09:21:10.680Z,1.42
2023-04-27T09:24:17.508Z,1.40
2023-04-27T09:27:21.759Z,1.20
2023-04-27T09:30:24.570Z,1.00
2023-04-27T09:33:29.770Z,1.20
2023-04-27T09:36:34.999Z,1.38
2023-04-27T09:39:37.563Z,1.08
2023-04-27T09:42:40.269Z,1.33
2023-04-27T09:45:46.744Z,1.50
2023-04-27T09:48:54.279Z,1.40
2023-04-27T09:51:59.738Z,1.00
2023-04-27T09:56:19.571Z,1.30
2023-04-27T10:01:49.381Z,1.47
2023-04-27T10:04:28.191Z,1.20
2023-04-27T10:07:33.746Z,1.40
2023-04-27T10:10:48.048Z,1.48
2023-04-27T10:13:55.088Z,1.90
2023-04-27T10:16:59.979Z,1.33
2023-04-27T10:20:04.147Z,1.20
2023-04-27T10:23:07.117Z,1.13
2023-04-27T10:26:09.402Z,1.30
2023-04-27T10:29:12.601Z,1.35
2023-04-27T10:32:25.686Z,1.60
2023-04-27T10:35:35.323Z,1.80
2023-04-27T10:38:43.495Z,1.50
2023-04-27T10:41:56.716Z,1.25
2023-04-27T10:44:59.447Z,1.88
2023-04-27T10:48:02.108Z,1.10
2023-04-27T10:51:27.482Z,1.55
2023-04-27T10:54:29.834Z,1.40
2023-04-27T10:57:33.093Z,1.25
2023-04-27T11:00:44.676Z,1.65
2023-04-27T11:03:55.353Z,1.40
2023-04-27T11:06:57.766Z,1.70
2023-04-27T11:10:00.312Z,1.25
2023-04-27T11:13:11.424Z,1.20
2023-04-27T11:16:13.795Z,1.30
2023-04-27T11:19:18.509Z,1.23
2023-04-27T11:22:20.853Z,1.40
2023-04-27T11:25:29.965Z,1.30
2023-04-27T11:28:33.075Z,0.85
2023-04-27T11:31:51.933Z,1.00
2023-04-27T11:35:02.623Z,1.50
2023-04-27T11:38:06.894Z,1.10
2023-04-27T11:41:09.185Z,1.38
2023-04-27T11:44:11.930Z,0.70
2023-04-27T11:47:19.292Z,1.27
2023-04-27T11:50:24.995Z,1.33
2023-04-27T11:53:39.535Z,0.90
2023-04-27T11:56:43.017Z,1.00
2023-04-27T11:59:45.304Z,1.48
2023-04-27T12:02:47.678Z,0.90
2023-04-27T12:05:51.257Z,1.33
2023-04-27T12:08:53.551Z,1.13
2023-04-27T12:11:56.287Z,1.08
2023-04-27T12:14:58.853Z,1.13
2023-04-27T12:18:01.273Z,1.17
2023-04-27T12:21:11.427Z,1.02
2023-04-27T12:24:13.984Z,1.52
2023-04-27T12:27:16.760Z,1.10
2023-04-27T12:30:19.528Z,1.20
2023-04-27T12:33:22.301Z,1.48
2023-04-27T12:36:24.813Z,1.10
2023-04-27T12:39:27.397Z,1.48
2023-04-27T12:42:30.220Z,1.20
2023-04-27T12:45:32.686Z,1.17
2023-04-27T12:48:34.968Z,1.42
2023-04-27T12:51:37.930Z,1.40
2023-04-27T12:54:44.754Z,1.05
2023-04-27T12:57:47.423Z,1.37
2023-04-27T13:00:49.648Z,1.27
2023-04-27T13:03:53.778Z,1.08
2023-04-27T13:06:56.680Z,1.43
2023-04-27T13:09:58.981Z,1.20
2023-04-27T13:13:01.331Z,1.02
2023-04-27T13:16:04.492Z,1.00
2023-04-27T13:19:06.745Z,1.23
2023-04-27T13:22:09.922Z,1.33
2023-04-27T13:25:12.245Z,1.40
2023-04-27T13:28:14.436Z,1.20
2023-04-27T13:31:16.685Z,1.13
2023-04-27T13:34:19.471Z,1.40
2023-04-27T13:37:21.799Z,1.23
2023-04-27T13:40:24.046Z,1.08
2023-04-27T13:43:27.264Z,1.30
2023-04-27T13:46:29.566Z,1.25
2023-04-27T13:49:31.924Z,1.10
2023-04-27T13:52:38.137Z,1.30
2023-04-27T13:55:40.644Z,1.10
2023-04-27T13:58:42.894Z,1.20
2023-04-27T14:01:45.274Z,1.50
2023-04-27T14:04:47.499Z,1.25
2023-04-27T14:07:49.767Z,1.60
2023-04-27T14:10:51.934Z,0.90
2023-04-27T14:13:54.120Z,1.00
2023-04-27T14:16:57.268Z,1.33
2023-04-27T14:19:59.496Z,1.27
2023-04-27T14:23:03.126Z,1.13
2023-04-27T14:26:06.020Z,1.35
2023-04-27T14:29:08.163Z,1.00
2023-04-27T14:32:10.429Z,1.40
2023-04-27T14:35:12.743Z,0.80
2023-04-27T14:38:14.961Z,1.10
2023-04-27T14:41:17.395Z,1.17
2023-04-27T14:44:19.856Z,0.85
2023-04-27T14:47:22.166Z,1.48
2023-04-27T14:50:27.125Z,1.30
2023-04-27T14:53:29.289Z,1.10
2023-04-27T14:56:31.447Z,1.23
2023-04-27T14:59:34.315Z,1.17
2023-04-27T15:02:37.868Z,1.52
2023-04-27T15:05:40.329Z,1.60
2023-04-27T15:08:42.524Z,1.27
2023-04-27T15:11:44.824Z,1.05
2023-04-27T15:14:48.286Z,1.20
2023-04-27T15:17:50.599Z,1.10
2023-04-27T15:20:56.625Z,1.40
2023-04-27T15:23:58.794Z,1.17
2023-04-27T15:27:01.689Z,1.40
2023-04-27T15:30:04.696Z,1.10
2023-04-27T15:33:09.538Z,1.13
2023-04-27T15:36:12.774Z,1.00
2023-04-27T15:39:15.251Z,1.10
2023-04-27T15:42:17.820Z,1.02
2023-04-27T15:45:20.315Z,1.25
2023-04-27T15:48:22.467Z,0.77
2023-04-27T15:51:24.763Z,1.40
2023-04-27T15:54:27.134Z,1.15
2023-04-27T15:57:29.338Z,1.15
2023-04-27T16:00:31.970Z,0.77
2023-04-27T16:03:34.844Z,1.27
2023-04-27T16:06:37.272Z,1.00
2023-04-27T16:09:39.445Z,1.10
2023-04-27T16:12:41.677Z,0.95
2023-04-27T16:15:43.882Z,1.33
2023-04-27T16:18:46.665Z,1.30
2023-04-27T16:21:49.106Z,0.77
2023-04-27T16:24:51.513Z,1.30
2023-04-27T16:27:53.670Z,1.00
2023-04-27T16:30:56.019Z,1.00
2023-04-27T16:33:58.196Z,1.20
2023-04-27T16:37:00.436Z,1.08
2023-04-27T16:40:07.019Z,1.47
2023-04-27T16:43:09.518Z,0.80
2023-04-27T16:46:11.947Z,1.48
2023-04-27T16:49:14.600Z,1.13
2023-04-27T16:52:18.035Z,1.20
2023-04-27T16:55:20.285Z,1.40
2023-04-27T16:58:22.784Z,1.42
2023-04-27T17:01:31.467Z,1.30
2023-04-27T17:04:39.305Z,1.67
2023-04-27T17:07:41.639Z,1.20
2023-04-27T17:10:45.291Z,1.00
2023-04-27T17:13:49.597Z,1.10
2023-04-27T17:16:52.079Z,1.10
2023-04-27T17:19:54.239Z,1.30
2023-04-27T17:22:56.454Z,1.33
2023-04-27T17:25:58.569Z,1.30
2023-04-27T17:29:01.615Z,1.33
2023-04-27T17:32:04.531Z,1.20
2023-04-27T17:35:07.181Z,1.10
2023-04-27T17:38:09.939Z,1.23
2023-04-27T17:41:12.227Z,1.60
2023-04-27T17:44:14.412Z,1.40
2023-04-27T17:47:18.908Z,1.40
2023-04-27T17:50:21.114Z,1.35
2023-04-27T17:53:23.500Z,1.52
2023-04-27T17:56:25.804Z,1.63
2023-04-27T17:59:28.950Z,1.70
2023-04-27T18:02:31.249Z,1.60
2023-04-27T18:05:36.373Z,1.50
2023-04-27T18:08:38.598Z,1.30
2023-04-27T18:11:41.457Z,1.80
2023-04-27T18:14:43.633Z,1.45
2023-04-27T18:17:45.897Z,1.40
2023-04-27T18:20:48.477Z,1.48
2023-04-27T18:23:51.155Z,1.00
2023-04-27T18:26:53.296Z,1.42
2023-04-27T18:29:55.995Z,1.50
2023-04-27T18:32:58.530Z,1.37
2023-04-27T18:36:00.789Z,1.70
2023-04-27T18:39:03.260Z,1.30
2023-04-27T18:42:05.505Z,1.40
2023-04-27T18:45:08.239Z,1.25
2023-04-27T18:48:10.479Z,1.20
2023-04-27T18:51:12.750Z,1.50
2023-04-27T18:54:15.094Z,1.35
2023-04-27T18:57:17.231Z,1.88
2023-04-27T19:00:19.775Z,1.50
2023-04-27T19:03:22.320Z,1.40
2023-04-27T19:06:24.632Z,1.83
2023-04-27T19:09:27.210Z,1.88
2023-04-27T19:12:29.583Z,1.80
2023-04-27T19:15:31.884Z,1.80
2023-04-27T19:18:34.708Z,1.40
2023-04-27T19:21:39.021Z,1.80
2023-04-27T19:24:41.255Z,1.70
2023-04-27T19:27:43.527Z,2.00
2023-04-27T19:30:46.704Z,2.15
2023-04-27T19:40:13.371Z,2.30
2023-04-27T19:43:15.705Z,2.60
2023-04-27T19:46:18.167Z,2.45
2023-04-27T19:49:20.716Z,2.75
2023-04-27T19:52:22.898Z,3.13
2023-04-27T19:55:25.063Z,3.67
2023-04-27T19:58:27.284Z,2.90
2023-04-27T20:01:29.722Z,3.97
2023-04-27T20:04:32.839Z,4.80
2023-04-27T20:07:35.474Z,4.20
2023-04-27T20:10:37.757Z,4.78
2023-04-27T20:13:39.989Z,4.60
2023-04-27T20:16:42.269Z,5.18
2023-04-27T20:19:46.107Z,5.00
2023-04-27T20:22:48.424Z,4.95
2023-04-27T20:25:52.198Z,4.90
2023-04-27T20:28:54.587Z,5.25
2023-04-27T20:31:56.839Z,4.75
2023-04-27T20:35:01.416Z,4.80
2023-04-27T20:38:04.599Z,4.90
2023-04-27T20:41:06.763Z,4.95
2023-04-27T20:44:09.552Z,5.20
2023-04-27T20:47:12.029Z,5.25
2023-04-27T20:50:14.462Z,5.60
2023-04-27T20:53:17.070Z,5.53
2023-04-27T20:56:20.187Z,5.30
2023-04-27T20:59:22.435Z,5.70
2023-04-27T21:02:24.919Z,5.43
2023-04-27T21:05:27.113Z,5.70
2023-04-27T21:08:29.352Z,5.47
2023-04-27T21:11:31.745Z,5.30
2023-04-27T21:14:34.892Z,5.60
2023-04-27T21:17:37.176Z,5.60
2023-04-27T21:20:39.651Z,5.93
2023-04-27T21:23:41.792Z,6.32
2023-04-27T21:26:43.955Z,5.53
2023-04-27T21:29:46.553Z,5.97
2023-04-27T21:32:48.911Z,5.68
2023-04-27T21:35:51.180Z,5.60
2023-04-27T21:38:53.428Z,5.50
2023-04-27T21:41:55.772Z,5.47
2023-04-27T21:44:58.025Z,6.00
2023-04-27T21:48:00.310Z,5.60
2023-04-27T21:51:02.675Z,6.32
2023-04-27T21:54:04.972Z,6.15
2023-04-27T21:57:07.412Z,5.90
2023-04-27T22:00:13.663Z,6.40
2023-04-27T22:03:22.888Z,6.68
2023-04-27T22:06:25.711Z,6.53
2023-04-27T22:09:28.148Z,7.00
2023-04-27T22:12:31.602Z,6.20
2023-04-27T22:15:34.065Z,6.77
2023-04-27T22:18:36.678Z,7.30
2023-04-27T22:21:38.918Z,7.40
2023-04-27T22:24:41.281Z,8.57
2023-04-27T22:27:45.433Z,8.70
2023-04-27T22:30:48.043Z,8.68
2023-04-27T22:33:50.418Z,9.13
2023-04-27T22:36:53.314Z,9.17
2023-04-27T22:39:56.075Z,9.52
2023-04-27T22:42:58.286Z,7.78
2023-04-27T22:46:00.545Z,8.73
2023-04-27T22:49:03.394Z,9.88
2023-04-27T22:52:05.616Z,9.30
2023-04-27T22:55:08.303Z,9.63
2023-04-27T22:58:10.536Z,9.30
2023-04-27T23:01:12.881Z,9.07
2023-04-27T23:04:16.352Z,10.30
2023-04-27T23:07:19.105Z,9.37
2023-04-27T23:10:21.575Z,10.23
2023-04-27T23:13:30.655Z,11.15
2023-04-27T23:16:32.946Z,11.70
2023-04-27T23:19:35.124Z,11.77
2023-04-27T23:22:39.989Z,11.05
2023-04-27T23:25:42.193Z,12.07
2023-04-27T23:28:44.726Z,11.82
2023-04-27T23:31:46.901Z,11.57
2023-04-27T23:34:49.102Z,12.10
2023-04-27T23:37:51.651Z,10.57
2023-04-27T23:40:53.893Z,10.57
2023-04-27T23:43:56.105Z,9.98
2023-04-27T23:46:58.428Z,9.90
2023-04-27T23:50:02.371Z,9.80
2023-04-27T23:53:04.670Z,8.98
2023-04-27T23:56:07.159Z,9.32
2023-04-27T23:59:10.872Z,8.82
